Time;durP1;ratioP1;P1;durP2;ratioP2;P2;SDS_P1;SDS_P2;PMS_P1;PMS_P2;Temp;Humidity;BMP_temperature;BMP_pressure;BME280_temperature;BME280_humidity;BME280_pressure;Samples;Min_cycle;Max_cycle;Signal;HPM_P1;HPM_P2
2023/08/21 00:00:45;;;;;;;3.20;1.35;;;14.10;1.00;;;;;;4986311;28;20382;-73
2023/08/21 00:03:10;;;;;;;3.35;1.10;;;14.10;1.00;;;;;;4996092;28;20041;-72
2023/08/21 00:05:36;;;;;;;5.38;1.50;;;14.00;1.00;;;;;;4983990;28;20117;-72
2023/08/21 00:08:01;;;;;;;2.33;1.27;;;14.00;1.00;;;;;;4964188;28;20035;-72
2023/08/21 00:10:27;;;;;;;2.30;1.25;;;13.90;1.00;;;;;;4984487;28;20088;-72
2023/08/21 00:12:53;;;;;;;2.63;1.10;;;13.90;1.00;;;;;;5000291;28;20590;-72
2023/08/21 00:15:18;;;;;;;1.88;1.30;;;13.90;1.00;;;;;;4999516;28;20046;-72
2023/08/21 00:17:44;;;;;;;4.32;1.30;;;13.80;1.00;;;;;;4984278;28;20078;-73
2023/08/21 00:20:10;;;;;;;4.03;1.13;;;13.80;1.00;;;;;;4984329;28;20045;-73
2023/08/21 00:22:36;;;;;;;2.75;1.20;;;13.80;1.00;;;;;;4973291;28;20038;-73
2023/08/21 00:25:03;;;;;;;5.05;1.20;;;13.80;1.00;;;;;;4986447;28;20073;-73
2023/08/21 00:27:28;;;;;;;2.30;0.82;;;13.80;1.00;;;;;;4991879;28;20038;-73
2023/08/21 00:29:54;;;;;;;2.13;0.70;;;13.80;1.00;;;;;;4984442;28;20055;-73
2023/08/21 00:32:19;;;;;;;1.48;1.00;;;13.80;1.00;;;;;;5000148;28;20082;-71
2023/08/21 00:34:45;;;;;;;1.00;0.57;;;13.70;1.00;;;;;;4985092;28;20038;-72
2023/08/21 00:37:11;;;;;;;1.15;0.70;;;13.70;1.00;;;;;;4983434;28;20117;-72
2023/08/21 00:39:36;;;;;;;2.50;0.60;;;13.60;1.00;;;;;;4974862;28;20042;-71
2023/08/21 00:42:02;;;;;;;3.05;0.90;;;13.60;1.00;;;;;;4996011;28;20115;-72
2023/08/21 00:44:28;;;;;;;1.35;0.65;;;13.60;1.00;;;;;;4985667;28;20037;-72
2023/08/21 00:46:54;;;;;;;1.02;0.80;;;13.60;1.00;;;;;;4998628;28;20039;-72
2023/08/21 00:49:20;;;;;;;1.35;0.90;;;13.60;1.00;;;;;;4989814;28;20081;-71
2023/08/21 00:51:48;;;;;;;1.45;0.90;;;13.60;1.00;;;;;;4981579;28;20704;-72
2023/08/21 00:54:13;;;;;;;2.10;1.25;;;13.50;1.00;;;;;;4994698;28;20212;-71
2023/08/21 00:56:39;;;;;;;3.08;1.00;;;13.60;1.00;;;;;;4982937;28;20064;-72
2023/08/21 00:59:05;;;;;;;1.05;0.70;;;13.40;1.00;;;;;;4980124;28;20053;-72
2023/08/21 01:01:32;;;;;;;1.33;0.90;;;13.40;1.00;;;;;;4983884;28;20034;-72
2023/08/21 01:03:57;;;;;;;1.67;1.08;;;13.30;1.00;;;;;;4999171;28;20500;-72
2023/08/21 01:06:23;;;;;;;2.17;1.05;;;13.30;1.00;;;;;;4983788;28;20131;-72
2023/08/21 01:09:07;;;;;;;3.55;1.13;;;13.30;1.00;;;;;;4998636;28;20049;-72
2023/08/21 01:11:43;;;;;;;2.17;1.00;;;13.30;1.00;;;;;;4972918;28;20610;-72
2023/08/21 01:14:27;;;;;;;7.85;2.22;;;13.20;1.00;;;;;;4980088;28;20070;-71
2023/08/21 01:16:58;;;;;;;2.55;1.30;;;13.10;1.00;;;;;;4983762;28;20623;-73
2023/08/21 01:19:45;;;;;;;3.42;1.55;;;13.10;1.00;;;;;;4992137;28;20137;-72
2023/08/21 01:22:11;;;;;;;2.97;1.30;;;13.20;1.00;;;;;;4985318;28;20106;-72
2023/08/21 01:24:37;;;;;;;2.92;1.27;;;13.10;1.00;;;;;;4996108;28;20127;-71
2023/08/21 01:27:03;;;;;;;5.10;1.58;;;13.10;1.00;;;;;;4984577;28;20141;-72
2023/08/21 01:29:29;;;;;;;2.83;1.40;;;13.10;1.00;;;;;;4986758;28;20402;-72
2023/08/21 01:32:26;;;;;;;3.45;1.25;;;13.00;1.00;;;;;;4997051;28;20046;-73
2023/08/21 01:34:55;;;;;;;3.67;1.23;;;13.00;6.30;;;;;;4969601;28;20050;-72
2023/08/21 01:37:22;;;;;;;3.53;1.10;;;13.00;12.20;;;;;;5000113;28;20129;-72
2023/08/21 01:39:47;;;;;;;4.95;1.67;;;13.10;14.20;;;;;;4986813;28;20065;-72
2023/08/21 01:42:13;;;;;;;4.05;1.27;;;13.10;12.00;;;;;;4968840;28;20046;-71
2023/08/21 01:44:39;;;;;;;3.30;1.83;;;13.00;8.30;;;;;;5002212;28;20551;-72
2023/08/21 01:47:04;;;;;;;3.85;1.50;;;13.00;9.90;;;;;;4970032;28;20547;-71
2023/08/21 01:49:30;;;;;;;4.28;1.50;;;12.90;12.60;;;;;;4983795;28;20042;-72
2023/08/21 01:51:56;;;;;;;3.15;1.48;;;12.90;14.80;;;;;;5000776;28;20065;-72
2023/08/21 01:54:21;;;;;;;3.58;1.77;;;12.90;18.50;;;;;;5000573;28;20050;-72
2023/08/21 01:56:47;;;;;;;1.80;1.23;;;12.80;23.00;;;;;;4986379;28;20050;-72
2023/08/21 01:59:13;;;;;;;4.95;1.50;;;12.80;26.30;;;;;;5000869;28;20041;-72
2023/08/21 02:01:38;;;;;;;3.28;1.40;;;12.80;29.90;;;;;;4982966;28;20042;-72
2023/08/21 02:04:04;;;;;;;2.10;1.33;;;12.80;35.70;;;;;;4985111;28;20038;-73
2023/08/21 02:06:29;;;;;;;3.78;1.60;;;12.70;41.10;;;;;;4970493;28;20042;-72
2023/08/21 02:08:55;;;;;;;3.95;1.48;;;12.80;50.40;;;;;;4986315;28;21446;-71
2023/08/21 02:11:21;;;;;;;3.00;1.38;;;12.80;54.60;;;;;;4986097;28;20038;-72
2023/08/21 02:13:46;;;;;;;1.30;0.73;;;12.80;53.20;;;;;;4985988;28;20136;-72
2023/08/21 02:16:12;;;;;;;1.55;0.98;;;12.80;49.70;;;;;;4988107;28;20046;-72
2023/08/21 02:18:37;;;;;;;2.58;1.00;;;12.70;50.60;;;;;;4983823;28;20077;-72
2023/08/21 02:21:03;;;;;;;3.50;1.40;;;12.70;47.30;;;;;;5001811;28;20154;-72
2023/08/21 02:23:29;;;;;;;6.45;1.30;;;12.60;47.20;;;;;;4984477;28;20447;-72
2023/08/21 02:25:55;;;;;;;1.60;1.08;;;12.60;48.10;;;;;;4969537;28;20100;-71
2023/08/21 02:28:20;;;;;;;2.28;1.05;;;12.50;50.40;;;;;;4972362;28;20030;-73
2023/08/21 02:30:46;;;;;;;1.67;1.00;;;12.50;56.90;;;;;;4984150;28;20416;-72
2023/08/21 02:33:12;;;;;;;1.67;1.08;;;12.50;55.50;;;;;;4985375;28;20046;-72
2023/08/21 02:35:38;;;;;;;1.90;1.00;;;12.50;56.10;;;;;;4977296;28;20066;-72
2023/08/21 02:38:04;;;;;;;1.20;1.02;;;12.50;59.50;;;;;;4983686;28;20089;-72
2023/08/21 02:40:29;;;;;;;3.05;1.15;;;12.40;65.00;;;;;;4977489;28;20051;-72
2023/08/21 02:42:55;;;;;;;1.77;1.02;;;12.50;62.50;;;;;;4992109;28;20045;-72
2023/08/21 02:45:20;;;;;;;2.30;0.80;;;12.40;62.40;;;;;;4968647;28;20046;-72
2023/08/21 02:47:46;;;;;;;1.52;0.95;;;12.40;64.70;;;;;;4969057;28;20046;-72
2023/08/21 02:50:11;;;;;;;1.75;0.80;;;12.40;64.50;;;;;;4983248;28;20061;-71
2023/08/21 02:52:38;;;;;;;1.13;0.80;;;12.40;63.80;;;;;;4981249;28;20041;-71
2023/08/21 02:55:04;;;;;;;1.10;0.85;;;12.40;61.70;;;;;;4982253;28;20049;-72
2023/08/21 02:57:30;;;;;;;1.10;1.00;;;12.40;58.20;;;;;;4971087;28;20401;-72
2023/08/21 02:59:56;;;;;;;1.90;1.00;;;12.40;62.00;;;;;;4984448;28;20520;-70
2023/08/21 03:02:23;;;;;;;1.45;0.95;;;12.30;63.10;;;;;;4983202;28;20038;-72
2023/08/21 03:04:49;;;;;;;2.22;0.77;;;12.30;56.30;;;;;;4986333;28;20537;-71
2023/08/21 03:07:15;;;;;;;1.83;0.95;;;12.30;52.40;;;;;;4985888;28;20413;-71
2023/08/21 03:09:41;;;;;;;3.17;1.00;;;12.20;53.40;;;;;;4979227;28;20045;-71
2023/08/21 03:12:07;;;;;;;0.88;0.80;;;12.10;59.40;;;;;;4984742;28;20043;-70
2023/08/21 03:14:33;;;;;;;1.45;0.90;;;12.10;63.70;;;;;;4989127;28;20121;-71
2023/08/21 03:16:59;;;;;;;3.33;0.88;;;12.20;65.60;;;;;;4984409;28;20189;-71
2023/08/21 03:19:24;;;;;;;2.00;0.85;;;12.20;64.20;;;;;;4983684;28;20041;-71
2023/08/21 03:21:51;;;;;;;1.20;0.80;;;12.10;57.60;;;;;;4965424;28;20031;-71
2023/08/21 03:24:17;;;;;;;1.40;0.80;;;12.10;52.90;;;;;;4965561;28;20100;-70
2023/08/21 03:26:42;;;;;;;1.00;0.32;;;12.10;57.70;;;;;;4983409;28;20042;-71
2023/08/21 03:29:08;;;;;;;0.30;0.30;;;12.10;62.70;;;;;;4973968;28;20453;-70
2023/08/21 03:31:34;;;;;;;0.70;0.60;;;12.00;62.50;;;;;;4998999;28;20054;-70
2023/08/21 03:33:59;;;;;;;0.52;0.47;;;12.10;59.20;;;;;;4987185;28;20042;-71
2023/08/21 03:36:30;;;;;;;0.40;0.40;;;12.10;55.00;;;;;;4968107;28;20046;-71
2023/08/21 03:39:00;;;;;;;0.77;0.55;;;12.00;53.60;;;;;;5003726;28;20042;-70
2023/08/21 03:41:26;;;;;;;0.85;0.45;;;12.00;52.10;;;;;;4990325;28;20113;-71
2023/08/21 03:43:51;;;;;;;0.77;0.60;;;11.90;52.50;;;;;;4991511;28;20146;-71
2023/08/21 03:46:17;;;;;;;1.30;0.75;;;11.90;53.10;;;;;;4980848;28;20723;-71
2023/08/21 03:48:43;;;;;;;1.45;0.70;;;11.90;49.70;;;;;;4982919;28;20046;-70
2023/08/21 03:51:08;;;;;;;0.75;0.57;;;11.80;48.30;;;;;;4974003;28;20394;-71
2023/08/21 03:53:34;;;;;;;1.10;0.75;;;11.80;54.20;;;;;;4996564;28;20038;-71
2023/08/21 03:55:59;;;;;;;2.63;0.73;;;11.80;57.50;;;;;;5000131;28;20042;-71
2023/08/21 03:58:26;;;;;;;0.63;0.47;;;11.80;60.40;;;;;;4972913;28;20041;-71
2023/08/21 04:00:52;;;;;;;0.77;0.55;;;11.80;60.70;;;;;;4998734;28;20049;-71
2023/08/21 04:03:18;;;;;;;1.15;0.60;;;11.80;54.60;;;;;;4979395;28;20037;-71
2023/08/21 04:05:44;;;;;;;1.38;0.70;;;11.80;52.90;;;;;;4999831;28;20400;-71
2023/08/21 04:08:10;;;;;;;1.02;0.80;;;11.70;54.40;;;;;;4983184;28;20061;-71
2023/08/21 04:10:35;;;;;;;1.23;0.50;;;11.70;55.80;;;;;;4988331;28;20566;-71
2023/08/21 04:13:01;;;;;;;2.17;1.08;;;11.60;57.80;;;;;;4984028;28;20805;-71
2023/08/21 04:15:27;;;;;;;1.42;0.98;;;11.60;60.40;;;;;;4983600;28;20046;-71
2023/08/21 04:17:52;;;;;;;0.80;0.75;;;11.60;64.10;;;;;;4999997;28;20074;-70
2023/08/21 04:20:21;;;;;;;1.23;0.98;;;11.60;69.40;;;;;;4999712;28;20149;-71
2023/08/21 04:22:46;;;;;;;1.77;0.85;;;11.60;72.50;;;;;;4982127;28;20034;-70
2023/08/21 04:25:12;;;;;;;1.70;0.85;;;11.60;72.60;;;;;;4996824;28;20069;-71
2023/08/21 04:27:37;;;;;;;2.53;0.80;;;11.60;69.30;;;;;;4982610;28;20033;-69
2023/08/21 04:30:04;;;;;;;2.15;0.82;;;11.60;70.50;;;;;;4981478;28;20062;-69
2023/08/21 04:32:30;;;;;;;2.17;0.90;;;11.60;74.10;;;;;;4982784;28;20046;-71
2023/08/21 04:34:56;;;;;;;1.15;0.75;;;11.60;79.20;;;;;;4977951;28;20054;-71
2023/08/21 04:37:23;;;;;;;2.83;0.90;;;11.60;82.80;;;;;;4984790;28;20109;-71
2023/08/21 04:39:52;;;;;;;1.67;0.50;;;11.70;83.40;;;;;;4984198;28;20090;-70
2023/08/21 04:42:18;;;;;;;0.70;0.45;;;11.70;80.30;;;;;;4982686;28;20500;-70
2023/08/21 04:44:43;;;;;;;0.90;0.60;;;11.60;78.50;;;;;;4989739;28;20117;-71
2023/08/21 04:47:21;;;;;;;1.40;0.70;;;11.70;77.50;;;;;;4969124;28;20034;-71
2023/08/21 04:49:48;;;;;;;3.15;0.80;;;11.60;74.60;;;;;;4995039;28;20539;-71
2023/08/21 04:52:14;;;;;;;1.58;0.85;;;11.70;76.00;;;;;;4997536;28;20508;-70
2023/08/21 04:54:39;;;;;;;1.52;1.08;;;11.60;82.20;;;;;;4971909;28;20095;-71
2023/08/21 04:57:05;;;;;;;2.50;0.90;;;11.60;84.40;;;;;;4981346;28;20041;-71
2023/08/21 04:59:31;;;;;;;3.42;0.90;;;11.70;82.30;;;;;;4988426;28;20436;-70
2023/08/21 05:01:57;;;;;;;2.15;0.90;;;11.60;88.70;;;;;;4972457;28;20030;-71
2023/08/21 05:04:22;;;;;;;0.85;0.50;;;11.60;91.00;;;;;;4985870;28;20065;-71
2023/08/21 05:06:48;;;;;;;2.50;0.73;;;11.70;91.80;;;;;;4981572;28;20493;-71
2023/08/21 05:09:14;;;;;;;1.48;0.90;;;11.80;92.20;;;;;;4987869;28;20437;-71
2023/08/21 05:11:40;;;;;;;0.80;0.75;;;11.80;91.30;;;;;;4971262;28;20050;-71
2023/08/21 05:14:06;;;;;;;3.72;1.17;;;11.80;91.90;;;;;;4999929;28;20049;-71
2023/08/21 05:16:32;;;;;;;3.17;0.80;;;11.90;93.20;;;;;;5003365;28;20492;-71
2023/08/21 05:18:57;;;;;;;2.35;0.80;;;11.90;95.90;;;;;;4982875;28;20121;-70
2023/08/21 05:21:23;;;;;;;3.60;0.85;;;11.90;97.30;;;;;;4969614;28;20089;-71
2023/08/21 05:23:49;;;;;;;2.92;1.05;;;12.00;98.60;;;;;;4989957;28;20397;-71
2023/08/21 05:26:14;;;;;;;4.10;1.13;;;12.00;99.10;;;;;;4984173;28;20108;-71
2023/08/21 05:28:40;;;;;;;1.73;1.02;;;12.00;97.80;;;;;;5000104;28;20559;-71
2023/08/21 05:31:05;;;;;;;0.88;0.80;;;12.00;98.10;;;;;;4984954;28;20046;-71
2023/08/21 05:33:31;;;;;;;4.10;1.15;;;12.10;98.40;;;;;;4971164;28;20409;-70
2023/08/21 05:35:57;;;;;;;3.00;0.90;;;12.10;99.90;;;;;;4983058;28;20468;-71
2023/08/21 05:38:23;;;;;;;2.25;1.00;;;12.20;99.90;;;;;;4987667;28;20034;-71
2023/08/21 05:40:48;;;;;;;3.72;1.08;;;12.20;99.90;;;;;;4967772;28;20039;-69
2023/08/21 05:43:15;;;;;;;2.58;0.98;;;12.30;99.90;;;;;;5001244;28;20491;-70
2023/08/21 05:45:41;;;;;;;2.80;1.45;;;12.30;99.90;;;;;;5000333;28;20035;-70
2023/08/21 05:48:07;;;;;;;2.53;1.35;;;12.40;99.90;;;;;;4982452;28;20096;-72
2023/08/21 05:50:32;;;;;;;3.20;1.52;;;12.50;99.90;;;;;;4982996;28;20085;-71
2023/08/21 05:52:58;;;;;;;3.17;1.20;;;12.70;99.90;;;;;;4980160;28;20046;-71
2023/08/21 05:55:24;;;;;;;2.63;1.42;;;12.70;99.90;;;;;;4964632;28;20074;-71
2023/08/21 05:57:49;;;;;;;4.28;1.70;;;12.90;99.90;;;;;;4999582;28;20469;-70
2023/08/21 06:00:15;;;;;;;1.60;1.20;;;13.00;99.90;;;;;;4964042;28;20046;-72
2023/08/21 06:02:44;;;;;;;2.65;1.33;;;13.20;99.90;;;;;;4997220;28;20511;-71
2023/08/21 06:05:09;;;;;;;4.70;2.03;;;13.40;99.90;;;;;;4964501;28;20053;-71
2023/08/21 06:07:35;;;;;;;2.92;1.58;;;13.70;99.90;;;;;;4999748;28;20042;-71
2023/08/21 06:10:00;;;;;;;4.38;1.63;;;14.00;99.90;;;;;;5002892;28;20500;-71
2023/08/21 06:12:26;;;;;;;5.80;1.90;;;14.30;99.90;;;;;;4984489;28;20042;-72
2023/08/21 06:14:52;;;;;;;3.75;1.35;;;14.50;99.90;;;;;;4983623;28;20570;-72
2023/08/21 06:17:18;;;;;;;3.63;1.55;;;14.80;99.90;;;;;;4980687;28;20520;-71
2023/08/21 06:19:43;;;;;;;2.40;1.17;;;15.00;99.90;;;;;;4968116;28;20500;-70
2023/08/21 06:22:09;;;;;;;4.28;1.38;;;15.30;99.90;;;;;;4983128;28;20034;-71
2023/08/21 06:24:35;;;;;;;3.08;1.33;;;15.50;99.90;;;;;;4998677;28;20041;-71
2023/08/21 06:27:00;;;;;;;4.07;1.45;;;15.70;99.90;;;;;;5000808;28;20101;-71
2023/08/21 06:29:26;;;;;;;3.67;1.50;;;15.90;99.90;;;;;;4982881;28;20050;-71
2023/08/21 06:31:52;;;;;;;3.40;1.35;;;16.10;99.90;;;;;;4975221;28;20441;-72
2023/08/21 06:34:17;;;;;;;2.70;1.40;;;16.20;99.90;;;;;;4986841;28;20105;-70
2023/08/21 06:36:43;;;;;;;3.92;1.50;;;16.30;99.90;;;;;;4975973;28;20034;-71
2023/08/21 06:39:09;;;;;;;2.88;1.38;;;16.40;99.90;;;;;;4978262;28;20076;-72
2023/08/21 06:41:34;;;;;;;4.45;1.38;;;16.40;99.90;;;;;;4977403;28;20650;-71
2023/08/21 06:44:00;;;;;;;7.38;1.77;;;16.50;99.90;;;;;;4984828;28;20037;-72
2023/08/21 06:46:26;;;;;;;5.18;1.15;;;16.50;99.90;;;;;;4987628;28;20042;-71
2023/08/21 06:48:52;;;;;;;2.92;1.10;;;16.50;99.90;;;;;;4981004;28;20057;-71
2023/08/21 06:51:18;;;;;;;4.63;1.20;;;16.50;99.90;;;;;;4983500;28;20287;-72
2023/08/21 06:53:43;;;;;;;2.92;1.05;;;16.50;99.90;;;;;;4999692;28;20038;-72
2023/08/21 06:56:09;;;;;;;3.50;1.27;;;16.60;99.90;;;;;;4981659;28;20034;-72
2023/08/21 06:58:34;;;;;;;3.30;1.25;;;16.60;99.90;;;;;;4982877;28;20050;-71
2023/08/21 07:01:01;;;;;;;3.00;0.90;;;16.70;99.90;;;;;;4996765;28;20038;-71
2023/08/21 07:03:26;;;;;;;5.00;1.10;;;16.70;99.90;;;;;;4981584;28;20041;-71
2023/08/21 07:05:58;;;;;;;5.30;1.52;;;16.70;99.90;;;;;;5000148;28;20038;-71
2023/08/21 07:08:24;;;;;;;9.80;1.60;;;16.80;99.90;;;;;;4985060;28;20528;-71
2023/08/21 07:10:50;;;;;;;5.47;1.00;;;16.90;99.90;;;;;;4953069;28;20043;-71
2023/08/21 07:13:16;;;;;;;3.65;1.20;;;17.00;99.90;;;;;;4966575;28;20064;-71
2023/08/21 07:15:41;;;;;;;3.70;0.95;;;17.00;99.90;;;;;;5001239;28;20145;-72
2023/08/21 07:18:07;;;;;;;2.92;1.20;;;17.10;99.90;;;;;;4986426;28;20139;-71
2023/08/21 07:20:33;;;;;;;6.10;1.75;;;17.20;99.90;;;;;;4981838;28;20046;-72
2023/08/21 07:22:59;;;;;;;4.00;0.93;;;17.30;94.40;;;;;;4988551;28;20088;-71
2023/08/21 07:25:25;;;;;;;2.35;0.70;;;17.50;87.90;;;;;;5000123;28;20067;-71
2023/08/21 07:27:54;;;;;;;4.18;0.82;;;17.60;72.60;;;;;;4978838;28;20066;-71
2023/08/21 07:30:20;;;;;;;3.50;0.80;;;17.60;60.50;;;;;;4997165;28;20065;-72
2023/08/21 07:32:47;;;;;;;5.20;0.90;;;17.70;51.90;;;;;;4977530;28;20057;-69
2023/08/21 07:35:12;;;;;;;5.03;0.90;;;17.80;42.40;;;;;;4995220;28;20121;-71
2023/08/21 07:37:40;;;;;;;4.15;1.00;;;17.90;29.50;;;;;;4999333;28;20071;-71
2023/08/21 07:40:07;;;;;;;4.07;0.90;;;17.90;22.30;;;;;;4995600;28;20046;-70
2023/08/21 07:42:33;;;;;;;2.58;0.70;;;18.00;22.10;;;;;;4969464;28;20492;-71
2023/08/21 07:44:58;;;;;;;2.15;0.80;;;18.00;10.60;;;;;;4982136;28;20044;-71
2023/08/21 07:47:26;;;;;;;2.25;0.77;;;18.20;1.00;;;;;;4981037;28;20070;-72
2023/08/21 07:49:51;;;;;;;3.90;0.95;;;18.20;1.00;;;;;;4981826;28;20042;-72
2023/08/21 07:52:17;;;;;;;2.42;0.77;;;18.30;1.00;;;;;;4977473;28;20038;-72
2023/08/21 07:54:43;;;;;;;4.75;0.80;;;18.30;1.00;;;;;;4982004;28;20408;-71
2023/08/21 07:57:08;;;;;;;1.60;0.70;;;18.40;1.00;;;;;;4980252;28;20042;-72
2023/08/21 07:59:34;;;;;;;1.65;0.70;;;18.50;1.00;;;;;;4982512;28;20042;-71
2023/08/21 08:02:00;;;;;;;2.55;0.90;;;18.50;1.00;;;;;;4984190;28;20057;-72
2023/08/21 08:04:26;;;;;;;2.47;0.85;;;18.50;1.00;;;;;;4978742;28;20030;-72
2023/08/21 08:06:52;;;;;;;1.75;0.82;;;18.60;1.00;;;;;;4985693;28;20038;-72
2023/08/21 08:09:18;;;;;;;1.90;1.00;;;18.60;1.00;;;;;;4982607;28;20050;-72
2023/08/21 08:11:43;;;;;;;2.33;0.75;;;18.70;1.00;;;;;;4999735;28;20080;-70
2023/08/21 08:14:09;;;;;;;4.97;0.80;;;18.80;99.90;;;;;;4983471;28;20066;-71
2023/08/21 08:16:35;;;;;;;4.20;0.88;;;18.90;99.90;;;;;;4998824;28;20076;-71
2023/08/21 08:19:00;;;;;;;4.43;1.13;;;19.10;99.90;;;;;;4981420;28;20078;-72
2023/08/21 08:21:26;;;;;;;2.97;0.75;;;19.30;99.90;;;;;;4975878;28;20031;-71
2023/08/21 08:23:52;;;;;;;2.42;0.77;;;19.30;99.90;;;;;;4986808;28;20038;-71
2023/08/21 08:26:17;;;;;;;3.00;0.90;;;19.40;99.90;;;;;;4982085;28;20034;-71
2023/08/21 08:28:43;;;;;;;1.98;0.82;;;19.50;99.90;;;;;;4982268;28;20056;-72
2023/08/21 08:31:18;;;;;;;2.35;0.50;;;19.50;99.90;;;;;;4974875;28;20046;-72
2023/08/21 08:33:44;;;;;;;1.27;0.70;;;19.60;99.90;;;;;;4967669;28;20046;-71
2023/08/21 08:36:10;;;;;;;1.95;0.80;;;19.80;89.20;;;;;;4996660;28;20409;-72
2023/08/21 08:38:37;;;;;;;2.10;0.70;;;20.10;1.00;;;;;;4995935;28;20042;-72
2023/08/21 08:41:10;;;;;;;4.10;0.75;;;20.20;1.00;;;;;;4988742;28;20103;-72
2023/08/21 08:43:39;;;;;;;1.13;0.50;;;20.30;1.00;;;;;;4975808;28;20927;-71
2023/08/21 08:46:07;;;;;;;2.22;0.73;;;20.40;99.90;;;;;;4974533;28;20868;-71
2023/08/21 08:48:37;;;;;;;3.10;0.63;;;20.60;99.90;;;;;;4971015;28;20046;-72
2023/08/21 08:51:06;;;;;;;1.95;0.60;;;20.80;99.90;;;;;;4973140;28;20042;-72
2023/08/21 08:53:32;;;;;;;1.67;0.60;;;20.90;99.90;;;;;;4977410;28;21002;-72
2023/08/21 08:55:58;;;;;;;3.70;1.15;;;21.00;99.90;;;;;;4987996;28;20289;-71
2023/08/21 08:58:24;;;;;;;2.05;0.70;;;21.20;99.90;;;;;;4975228;28;20042;-72
2023/08/21 09:00:50;;;;;;;2.83;0.75;;;21.40;99.90;;;;;;4976731;28;20054;-71
2023/08/21 09:03:16;;;;;;;3.55;1.08;;;21.70;99.90;;;;;;4984225;28;20045;-71
2023/08/21 09:05:42;;;;;;;3.85;0.65;;;22.00;99.90;;;;;;4978521;28;20046;-72
2023/08/21 09:08:11;;;;;;;2.15;0.60;;;22.30;99.90;;;;;;4978602;28;20037;-72
2023/08/21 09:10:38;;;;;;;2.00;0.73;;;22.60;14.30;;;;;;4993985;28;20049;-72
2023/08/21 09:13:18;;;;;;;2.65;0.68;;;23.30;1.00;;;;;;4998995;28;20038;-72
2023/08/21 09:15:47;;;;;;;0.98;0.68;;;24.70;1.00;;;;;;4996707;28;20046;-70
2023/08/21 09:18:13;;;;;;;1.02;0.38;;;25.90;1.00;;;;;;4981990;28;20046;-72
2023/08/21 09:20:39;;;;;;;1.70;0.38;;;26.80;1.00;;;;;;4982595;28;20058;-72
2023/08/21 09:23:05;;;;;;;3.03;0.60;;;27.60;1.00;;;;;;4980716;28;20038;-72
2023/08/21 09:25:36;;;;;;;2.85;0.70;;;28.40;1.00;;;;;;4996758;28;20041;-73
2023/08/21 09:28:08;;;;;;;1.90;0.60;;;29.10;1.00;;;;;;4996178;28;20069;-71
2023/08/21 09:31:03;;;;;;;1.38;0.60;;;29.70;1.00;;;;;;4963666;28;20061;-72
2023/08/21 09:33:29;;;;;;;2.42;0.45;;;30.40;1.00;;;;;;4959716;28;20161;-72
2023/08/21 09:35:55;;;;;;;2.42;0.60;;;30.90;1.00;;;;;;4999022;28;20117;-72
2023/08/21 09:38:21;;;;;;;1.23;0.50;;;31.40;1.00;;;;;;4999597;28;20038;-72
2023/08/21 09:40:55;;;;;;;2.65;0.60;;;31.80;1.00;;;;;;5000952;28;20070;-72
2023/08/21 09:43:22;;;;;;;2.83;0.55;;;32.30;1.00;;;;;;4998734;28;20572;-72
2023/08/21 09:45:49;;;;;;;1.20;0.25;;;32.80;1.00;;;;;;4976245;28;20034;-72
2023/08/21 09:48:15;;;;;;;4.43;0.80;;;33.20;1.00;;;;;;4985205;28;20053;-71
2023/08/21 09:50:40;;;;;;;1.30;0.45;;;33.10;1.00;;;;;;4970125;28;20042;-72
2023/08/21 09:53:08;;;;;;;1.77;0.38;;;33.20;1.00;;;;;;4971259;28;20073;-72
2023/08/21 09:55:34;;;;;;;1.23;0.40;;;33.20;1.00;;;;;;4969001;28;20202;-73
2023/08/21 09:58:01;;;;;;;1.83;0.30;;;33.20;1.00;;;;;;4994255;28;20405;-72
2023/08/21 10:00:37;;;;;;;1.00;0.60;;;33.40;1.00;;;;;;4979109;28;20122;-72
2023/08/21 10:03:04;;;;;;;;;;;33.80;1.00;;;;;;4989504;28;20474;-74
2023/08/21 10:05:31;;;;;;;0.52;0.20;;;33.80;1.00;;;;;;4994941;28;20261;-73
2023/08/21 10:08:02;;;;;;;1.95;0.40;;;33.80;1.00;;;;;;4987801;28;20038;-74
2023/08/21 10:10:36;;;;;;;1.23;0.57;;;33.70;1.00;;;;;;4973289;28;20038;-73
2023/08/21 10:13:04;;;;;;;2.13;0.57;;;34.10;1.00;;;;;;4975066;28;20053;-73
2023/08/21 10:15:32;;;;;;;2.25;0.63;;;34.30;1.00;;;;;;4992940;28;20092;-73
2023/08/21 10:17:58;;;;;;;2.75;0.50;;;33.90;1.00;;;;;;4982288;28;20046;-73
2023/08/21 10:20:26;;;;;;;3.40;0.68;;;33.40;1.00;;;;;;4999662;28;20105;-72
2023/08/21 10:23:01;;;;;;;1.85;0.50;;;33.30;1.00;;;;;;4973583;28;20165;-73
2023/08/21 10:25:26;;;;;;;2.20;0.65;;;33.70;1.00;;;;;;4984781;28;20100;-71
2023/08/21 10:27:54;;;;;;;1.88;0.40;;;33.90;1.00;;;;;;4980533;28;20053;-72
2023/08/21 10:30:25;;;;;;;1.20;0.30;;;34.10;1.00;;;;;;4968434;28;20062;-73
2023/08/21 10:32:59;;;;;;;1.10;0.30;;;34.50;1.00;;;;;;4990436;28;20116;-72
2023/08/21 10:35:29;;;;;;;1.73;0.43;;;34.60;1.00;;;;;;4972430;28;20051;-72
2023/08/21 10:38:12;;;;;;;2.08;0.40;;;34.80;1.00;;;;;;4986271;28;20050;-73
2023/08/21 10:41:05;;;;;;;2.42;0.50;;;35.00;1.00;;;;;;5002272;28;20050;-73
2023/08/21 10:43:39;;;;;;;0.90;0.40;;;35.50;1.00;;;;;;4986237;28;20096;-73
2023/08/21 10:46:06;;;;;;;2.08;0.38;;;36.00;1.00;;;;;;4985700;28;20129;-73
2023/08/21 10:48:31;;;;;;;1.55;0.50;;;36.10;1.00;;;;;;4988912;28;20053;-72
2023/08/21 10:51:00;;;;;;;1.98;0.63;;;36.10;1.00;;;;;;4986741;28;20041;-73
2023/08/21 10:53:27;;;;;;;1.98;0.70;;;35.90;1.00;;;;;;4981848;28;20161;-74
2023/08/21 10:55:56;;;;;;;1.20;0.20;;;36.20;1.00;;;;;;4978766;28;20034;-74
2023/08/21 10:58:22;;;;;;;1.65;0.40;;;36.80;1.00;;;;;;4998608;28;20085;-74
2023/08/21 11:00:56;;;;;;;2.30;0.45;;;37.50;1.00;;;;;;4986035;28;20469;-74
2023/08/21 11:03:22;;;;;;;1.65;0.43;;;37.70;1.00;;;;;;4995297;28;20042;-73
2023/08/21 11:06:03;;;;;;;1.63;0.55;;;37.70;1.00;;;;;;4983047;28;20378;-74
2023/08/21 11:08:29;;;;;;;0.93;0.40;;;37.30;1.00;;;;;;4999771;28;20073;-74
2023/08/21 11:10:55;;;;;;;2.33;0.55;;;37.60;1.00;;;;;;4996166;28;20034;-74
2023/08/21 11:13:24;;;;;;;0.85;0.43;;;38.10;1.00;;;;;;4983074;28;20116;-74
2023/08/21 11:16:01;;;;;;;2.00;0.65;;;38.70;1.00;;;;;;4998630;28;20104;-73
2023/08/21 11:18:40;;;;;;;3.85;0.60;;;38.90;1.00;;;;;;4997904;28;20046;-72
2023/08/21 11:21:11;;;;;;;1.95;0.68;;;38.80;1.00;;;;;;4964927;28;20133;-74
2023/08/21 11:23:38;;;;;;;2.60;0.88;;;38.90;1.00;;;;;;4998857;28;20038;-74
2023/08/21 11:26:05;;;;;;;2.55;0.57;;;39.20;1.00;;;;;;4983662;28;20046;-74
2023/08/21 11:28:31;;;;;;;1.88;0.50;;;38.90;1.00;;;;;;4972834;28;20046;-73
2023/08/21 11:30:58;;;;;;;1.58;0.30;;;38.10;1.00;;;;;;5000258;28;20050;-74
2023/08/21 11:33:25;;;;;;;2.20;0.55;;;37.40;1.00;;;;;;4983781;28;20741;-70
2023/08/21 11:35:53;;;;;;;1.30;0.40;;;36.10;1.00;;;;;;4983792;28;20417;-73
2023/08/21 11:38:23;;;;;;;1.70;0.50;;;34.40;1.00;;;;;;5001879;28;20807;-73
2023/08/21 11:41:05;;;;;;;3.10;0.50;;;33.70;1.00;;;;;;5000378;28;20138;-72
2023/08/21 11:43:38;;;;;;;2.58;0.50;;;33.90;1.00;;;;;;4982913;28;20049;-73
2023/08/21 11:46:06;;;;;;;3.80;0.50;;;34.70;1.00;;;;;;4989714;28;20105;-72
2023/08/21 11:48:32;;;;;;;0.70;0.40;;;34.80;1.00;;;;;;4985525;28;20416;-73
2023/08/21 11:50:58;;;;;;;3.10;0.68;;;34.70;1.00;;;;;;4980769;28;20582;-73
2023/08/21 11:53:40;;;;;;;4.15;0.75;;;34.20;1.00;;;;;;4981794;28;20050;-73
2023/08/21 11:56:14;;;;;;;6.40;0.65;;;34.70;1.00;;;;;;4994427;28;20136;-73
2023/08/21 11:58:41;;;;;;;1.20;0.60;;;35.10;1.00;;;;;;4981856;28;20095;-71
2023/08/21 12:01:09;;;;;;;1.65;0.43;;;36.30;1.00;;;;;;4997597;28;20536;-73
2023/08/21 12:03:37;;;;;;;1.08;0.32;;;36.40;1.00;;;;;;4964733;28;20041;-71
2023/08/21 12:06:11;;;;;;;1.38;0.50;;;35.30;1.00;;;;;;4978707;28;20053;-71
2023/08/21 12:08:37;;;;;;;1.52;0.50;;;34.30;1.00;;;;;;4976019;28;20031;-73
2023/08/21 12:11:04;;;;;;;1.20;0.55;;;34.90;1.00;;;;;;4963061;28;20034;-73
2023/08/21 12:13:30;;;;;;;3.63;1.10;;;35.90;1.00;;;;;;4973094;28;20074;-72
2023/08/21 12:15:56;;;;;;;1.70;0.65;;;36.70;1.00;;;;;;4963407;28;20038;-73
2023/08/21 12:18:21;;;;;;;1.92;0.47;;;37.10;1.00;;;;;;4981361;28;20035;-73
2023/08/21 12:20:47;;;;;;;0.70;0.50;;;37.10;1.00;;;;;;4977339;28;20170;-74
2023/08/21 12:23:13;;;;;;;1.10;0.45;;;37.50;1.00;;;;;;4962764;28;22083;-73
2023/08/21 12:25:38;;;;;;;1.35;0.30;;;37.70;1.00;;;;;;4974247;28;20125;-73
2023/08/21 12:28:05;;;;;;;3.17;0.60;;;38.50;1.00;;;;;;4979747;28;20114;-74
2023/08/21 12:30:31;;;;;;;2.10;0.50;;;38.70;1.00;;;;;;4989769;28;20085;-73
2023/08/21 12:32:57;;;;;;;1.27;0.40;;;38.80;1.00;;;;;;4978658;28;20051;-74
2023/08/21 12:35:23;;;;;;;2.60;0.80;;;39.10;1.00;;;;;;4991157;28;20046;-73
2023/08/21 12:37:48;;;;;;;2.40;0.65;;;39.30;1.00;;;;;;4977620;28;20050;-73
2023/08/21 12:40:14;;;;;;;2.45;0.70;;;39.40;1.00;;;;;;4984583;28;20053;-73
2023/08/21 12:42:40;;;;;;;2.28;0.60;;;39.70;1.00;;;;;;4982184;28;20046;-73
2023/08/21 12:45:06;;;;;;;1.40;0.50;;;39.40;1.00;;;;;;4963972;28;20045;-74
2023/08/21 12:47:32;;;;;;;2.00;0.40;;;38.60;1.00;;;;;;4976300;28;20035;-73
2023/08/21 12:49:58;;;;;;;2.22;0.40;;;37.40;1.00;;;;;;4969994;28;20121;-73
2023/08/21 12:52:23;;;;;;;1.65;0.60;;;35.70;1.00;;;;;;4974660;28;20648;-74